createdAt,value
2023-05-15T00:01:39.161Z,84.40
2023-05-15T00:04:07.029Z,84.60
2023-05-15T00:06:34.973Z,84.60
2023-05-15T00:09:03.918Z,84.60
2023-05-15T00:11:31.806Z,84.80
2023-05-15T00:13:59.670Z,85.00
2023-05-15T00:16:27.655Z,84.90
2023-05-15T00:18:56.967Z,84.80
2023-05-15T00:21:24.886Z,84.90
2023-05-15T00:23:54.006Z,85.10
2023-05-15T00:26:25.190Z,85.00
2023-05-15T00:28:53.078Z,85.00
2023-05-15T00:31:21.239Z,85.00
2023-05-15T00:33:49.106Z,85.00
2023-05-15T00:36:18.394Z,85.10
2023-05-15T00:38:46.273Z,85.30
2023-05-15T00:41:15.359Z,85.20
2023-05-15T00:43:44.407Z,85.40
2023-05-15T00:46:14.325Z,85.50
2023-05-15T00:48:43.278Z,85.40
2023-05-15T00:51:11.264Z,85.50
2023-05-15T00:53:41.412Z,85.60
2023-05-15T00:56:10.248Z,85.60
2023-05-15T00:58:38.822Z,85.80
2023-05-15T01:01:08.433Z,85.80
2023-05-15T01:03:37.585Z,85.80
2023-05-15T01:06:06.802Z,86.00
2023-05-15T01:08:43.463Z,86.00
2023-05-15T01:11:12.772Z,86.20
2023-05-15T01:13:41.137Z,86.30
2023-05-15T01:16:10.166Z,86.40
2023-05-15T01:18:38.416Z,86.40
2023-05-15T01:21:40.815Z,86.40
2023-05-15T01:24:42.606Z,86.30
2023-05-15T01:27:20.258Z,86.30
2023-05-15T01:29:58.536Z,86.30
2023-05-15T01:32:33.212Z,86.70
2023-05-15T01:35:11.020Z,86.50
2023-05-15T01:37:43.613Z,86.70
2023-05-15T01:40:13.992Z,86.70
2023-05-15T01:42:56.176Z,86.90
2023-05-15T01:45:26.042Z,86.80
2023-05-15T01:47:55.438Z,87.00
2023-05-15T01:50:23.903Z,87.00
2023-05-15T01:52:57.510Z,86.60
2023-05-15T01:55:28.605Z,87.60
2023-05-15T01:57:59.590Z,87.70
2023-05-15T02:00:27.506Z,87.70
2023-05-15T02:02:56.370Z,87.50
2023-05-15T02:05:24.783Z,87.60
2023-05-15T02:07:53.602Z,87.40
2023-05-15T02:10:21.888Z,87.50
2023-05-15T02:12:50.776Z,87.60
2023-05-15T02:15:21.679Z,87.80
2023-05-15T02:17:49.586Z,87.80
2023-05-15T02:20:17.830Z,87.80
2023-05-15T02:22:45.720Z,87.80
2023-05-15T02:25:13.614Z,87.80
2023-05-15T02:27:48.851Z,87.70
2023-05-15T02:30:27.560Z,87.80
2023-05-15T02:33:05.936Z,87.90
2023-05-15T02:35:38.845Z,88.00
2023-05-15T02:38:10.616Z,88.30
2023-05-15T02:40:39.503Z,88.10
2023-05-15T02:43:08.535Z,88.10
2023-05-15T02:45:38.857Z,88.00
2023-05-15T02:48:07.746Z,87.90
2023-05-15T02:50:35.817Z,88.00
2023-05-15T02:53:04.447Z,87.90
2023-05-15T02:55:32.543Z,87.90
2023-05-15T02:58:00.758Z,88.00
2023-05-15T03:00:29.028Z,88.00
2023-05-15T03:02:58.336Z,88.20
2023-05-15T03:05:26.873Z,88.70
2023-05-15T03:07:55.148Z,88.90
2023-05-15T03:10:24.130Z,88.80
2023-05-15T03:12:52.049Z,88.70
2023-05-15T03:15:20.282Z,88.60
2023-05-15T03:17:48.189Z,88.40
2023-05-15T03:20:17.906Z,88.50
2023-05-15T03:22:45.756Z,88.40
2023-05-15T03:25:13.722Z,88.30
2023-05-15T03:27:41.630Z,88.10
2023-05-15T03:30:10.644Z,88.10
2023-05-15T03:32:38.554Z,87.90
2023-05-15T03:35:07.196Z,88.00
2023-05-15T03:37:36.470Z,88.00
2023-05-15T03:40:06.673Z,87.90
2023-05-15T03:42:34.556Z,87.70
2023-05-15T03:45:02.493Z,87.70
2023-05-15T03:47:30.474Z,87.70
2023-05-15T03:49:58.340Z,87.50
2023-05-15T03:52:26.419Z,87.60
2023-05-15T03:54:55.673Z,87.50
2023-05-15T03:57:23.671Z,87.40
2023-05-15T03:59:51.550Z,87.20
2023-05-15T04:02:19.418Z,87.20
2023-05-15T04:04:47.346Z,86.90
2023-05-15T04:07:15.266Z,86.60
2023-05-15T04:09:43.151Z,86.60
2023-05-15T04:12:12.438Z,86.70
2023-05-15T04:14:40.261Z,86.80
2023-05-15T04:17:08.140Z,87.10
2023-05-15T04:19:35.998Z,87.00
2023-05-15T04:22:03.881Z,86.70
2023-05-15T04:24:31.738Z,86.50
2023-05-15T04:26:59.627Z,86.70
2023-05-15T04:29:28.917Z,86.80
2023-05-15T04:31:56.832Z,86.90
2023-05-15T04:34:24.831Z,86.70
2023-05-15T04:36:52.743Z,86.30
2023-05-15T04:39:20.672Z,86.30
2023-05-15T04:41:48.517Z,86.20
2023-05-15T04:44:16.369Z,86.20
2023-05-15T04:46:45.881Z,86.50
2023-05-15T04:49:13.733Z,86.20
2023-05-15T04:51:42.693Z,86.20
2023-05-15T04:54:10.572Z,86.10
2023-05-15T04:56:38.430Z,86.30
2023-05-15T04:59:06.325Z,86.10
2023-05-15T05:01:34.183Z,86.00
2023-05-15T05:04:03.438Z,85.60
2023-05-15T05:06:31.367Z,85.80
2023-05-15T05:08:59.517Z,85.70
2023-05-15T05:11:27.452Z,85.60
2023-05-15T05:13:55.416Z,85.50
2023-05-15T05:16:23.311Z,85.50
2023-05-15T05:18:51.531Z,85.60
2023-05-15T05:21:20.784Z,85.50
2023-05-15T05:23:48.663Z,85.70
2023-05-15T05:26:16.535Z,85.80
2023-05-15T05:28:44.446Z,85.70
2023-05-15T05:31:12.412Z,86.10
2023-05-15T05:33:40.304Z,86.20
2023-05-15T05:36:08.811Z,85.00
2023-05-15T05:38:38.038Z,85.70
2023-05-15T05:41:05.959Z,85.80
2023-05-15T05:43:33.834Z,85.60
2023-05-15T05:46:02.521Z,85.60
2023-05-15T05:48:30.854Z,85.20
2023-05-15T05:50:59.135Z,85.20
2023-05-15T05:53:27.057Z,84.90
2023-05-15T05:55:56.577Z,84.80
2023-05-15T05:58:26.039Z,84.90
2023-05-15T06:00:54.883Z,84.40
2023-05-15T06:03:24.012Z,83.50
2023-05-15T06:05:52.921Z,83.30
2023-05-15T06:08:20.868Z,83.20
2023-05-15T06:10:48.978Z,82.50
2023-05-15T06:13:18.260Z,82.60
2023-05-15T06:15:47.352Z,83.10
2023-05-15T06:18:15.449Z,83.50
2023-05-15T06:20:43.363Z,83.40
2023-05-15T06:23:11.250Z,83.40
2023-05-15T06:25:39.519Z,83.40
2023-05-15T06:28:07.402Z,83.20
2023-05-15T06:30:36.729Z,82.90
2023-05-15T06:33:04.678Z,83.00
2023-05-15T06:35:32.568Z,82.60
2023-05-15T06:38:00.418Z,82.30
2023-05-15T06:40:28.518Z,82.20
2023-05-15T06:42:56.502Z,82.20
2023-05-15T06:45:24.639Z,81.90
2023-05-15T06:47:54.117Z,82.40
2023-05-15T06:50:22.177Z,81.20
2023-05-15T06:52:50.030Z,82.10
2023-05-15T06:55:17.959Z,82.30
2023-05-15T06:57:45.834Z,82.20
2023-05-15T07:00:15.029Z,82.10
2023-05-15T07:02:43.713Z,82.60
2023-05-15T07:05:13.322Z,82.10
2023-05-15T07:07:41.455Z,83.00
2023-05-15T07:10:10.782Z,83.20
2023-05-15T07:12:38.631Z,83.30
2023-05-15T07:15:07.361Z,83.70
2023-05-15T07:17:35.580Z,83.70
2023-05-15T07:20:06.024Z,84.10
2023-05-15T07:22:44.591Z,84.10
2023-05-15T07:25:33.798Z,83.70
2023-05-15T07:28:07.551Z,83.20
2023-05-15T07:30:35.398Z,82.00
2023-05-15T07:33:03.329Z,82.90
2023-05-15T07:35:31.251Z,82.90
2023-05-15T07:38:00.437Z,82.90
2023-05-15T07:40:28.331Z,82.40
2023-05-15T07:42:56.206Z,82.50
2023-05-15T07:45:24.321Z,82.40
2023-05-15T07:47:52.690Z,82.50
2023-05-15T07:50:21.375Z,82.70
2023-05-15T07:52:49.284Z,83.00
2023-05-15T07:55:18.505Z,82.90
2023-05-15T07:57:53.402Z,83.60
2023-05-15T08:00:22.335Z,83.40
2023-05-15T08:02:50.236Z,83.20
2023-05-15T08:05:18.242Z,81.60
2023-05-15T08:07:46.568Z,82.20
2023-05-15T08:10:14.435Z,82.60
2023-05-15T08:12:46.469Z,83.20
2023-05-15T08:15:14.580Z,82.70
2023-05-15T08:17:42.514Z,82.10
2023-05-15T08:20:11.619Z,81.60
2023-05-15T08:22:39.471Z,80.30
2023-05-15T08:25:08.775Z,80.30
2023-05-15T08:27:36.726Z,78.90
2023-05-15T08:30:07.193Z,77.60
2023-05-15T08:32:35.130Z,77.80
2023-05-15T08:35:03.099Z,77.70
2023-05-15T08:37:31.080Z,77.40
2023-05-15T08:39:58.988Z,76.50
2023-05-15T08:42:34.394Z,77.20
2023-05-15T08:45:02.591Z,77.50
2023-05-15T08:47:35.961Z,77.10
2023-05-15T08:50:07.906Z,76.30
2023-05-15T08:52:36.368Z,76.90
2023-05-15T08:55:05.258Z,75.40
2023-05-15T08:57:34.737Z,75.00
2023-05-15T09:00:05.691Z,75.60
2023-05-15T09:02:36.342Z,75.00
2023-05-15T09:05:04.528Z,72.70
2023-05-15T09:07:33.087Z,74.10
2023-05-15T09:10:02.489Z,71.30
2023-05-15T09:12:33.904Z,70.40
2023-05-15T09:15:22.242Z,72.00
2023-05-15T09:17:51.923Z,71.90
2023-05-15T09:20:27.748Z,69.50
2023-05-15T09:22:55.967Z,69.10
2023-05-15T09:25:41.485Z,70.90
2023-05-15T09:28:12.400Z,70.10
2023-05-15T09:30:42.690Z,71.80
2023-05-15T09:33:12.712Z,72.40
2023-05-15T09:35:41.567Z,70.90
2023-05-15T09:38:12.885Z,71.20
2023-05-15T09:40:41.519Z,72.20
2023-05-15T09:43:11.295Z,71.80
2023-05-15T09:45:39.250Z,72.90
2023-05-15T09:48:09.908Z,72.70
2023-05-15T09:50:40.919Z,69.10
2023-05-15T09:53:13.258Z,69.60
2023-05-15T09:55:43.035Z,69.40
2023-05-15T09:58:12.456Z,66.30
2023-05-15T10:00:47.716Z,66.30
2023-05-15T10:03:18.004Z,66.80
2023-05-15T10:05:47.411Z,65.30
2023-05-15T10:08:16.119Z,65.10
2023-05-15T10:10:44.570Z,63.60
2023-05-15T10:13:12.694Z,61.50
2023-05-15T10:15:41.032Z,64.20
2023-05-15T10:18:09.404Z,65.90
2023-05-15T10:20:38.665Z,63.70
2023-05-15T10:23:11.076Z,62.20
2023-05-15T10:25:42.983Z,61.70
2023-05-15T10:28:12.264Z,61.50
2023-05-15T10:30:40.461Z,62.00
2023-05-15T10:33:09.393Z,61.50
2023-05-15T10:35:39.068Z,58.30
2023-05-15T10:38:09.236Z,58.10
2023-05-15T10:40:39.198Z,59.10
2023-05-15T10:43:07.476Z,59.00
2023-05-15T10:45:36.644Z,57.60
2023-05-15T10:48:07.587Z,57.90
2023-05-15T10:50:38.002Z,58.80
2023-05-15T10:53:06.041Z,55.90
2023-05-15T10:55:35.290Z,56.20
2023-05-15T10:58:03.336Z,56.20
2023-05-15T11:00:32.266Z,57.00
2023-05-15T11:03:00.997Z,52.80
2023-05-15T11:05:31.098Z,56.80
2023-05-15T11:08:27.370Z,53.20
2023-05-15T11:10:56.653Z,52.10
2023-05-15T11:13:24.554Z,53.10
2023-05-15T11:15:52.515Z,50.60
2023-05-15T11:18:21.666Z,49.90
2023-05-15T11:21:09.613Z,52.50
2023-05-15T11:23:40.130Z,51.80
2023-05-15T11:26:09.564Z,52.10
2023-05-15T11:28:47.325Z,51.80
2023-05-15T11:31:15.919Z,49.70
2023-05-15T11:33:43.891Z,58.60
2023-05-15T11:36:15.651Z,49.80
2023-05-15T11:38:44.890Z,47.90
2023-05-15T11:41:24.908Z,48.50
2023-05-15T11:43:53.347Z,53.10
2023-05-15T11:46:22.834Z,46.70
2023-05-15T11:48:51.670Z,47.70
2023-05-15T11:51:22.259Z,49.90
2023-05-15T11:53:51.588Z,46.90
2023-05-15T11:56:22.813Z,43.70
2023-05-15T11:58:51.591Z,43.10
2023-05-15T12:01:19.579Z,43.20
2023-05-15T12:03:49.731Z,43.70
2023-05-15T12:06:17.996Z,44.50
2023-05-15T12:08:51.562Z,44.30
2023-05-15T12:11:23.049Z,47.50
2023-05-15T12:13:52.682Z,43.00
2023-05-15T12:16:25.826Z,44.80
2023-05-15T12:18:53.899Z,44.40
2023-05-15T12:21:21.909Z,45.50
2023-05-15T12:24:06.533Z,47.60
2023-05-15T12:26:37.426Z,44.80
2023-05-15T12:29:06.041Z,45.70
2023-05-15T12:31:35.548Z,44.50
2023-05-15T12:34:03.750Z,44.40
2023-05-15T12:36:31.997Z,43.80
2023-05-15T12:39:05.725Z,43.90
2023-05-15T12:41:33.699Z,41.70
2023-05-15T12:44:03.023Z,43.20
2023-05-15T12:46:31.613Z,42.40
2023-05-15T12:48:59.849Z,43.10
2023-05-15T12:51:29.816Z,46.80
2023-05-15T12:53:58.846Z,45.50
2023-05-15T12:56:27.243Z,47.60
2023-05-15T12:58:56.760Z,43.80
2023-05-15T13:01:26.749Z,43.80
2023-05-15T13:03:55.310Z,43.40
2023-05-15T13:06:24.325Z,46.20
2023-05-15T13:08:57.199Z,44.70
2023-05-15T13:11:30.313Z,45.10
2023-05-15T13:13:58.201Z,47.80
2023-05-15T13:16:29.831Z,43.30
2023-05-15T13:18:58.732Z,44.60
2023-05-15T13:21:26.976Z,46.00
2023-05-15T13:23:54.880Z,47.00
2023-05-15T13:26:22.784Z,46.10
2023-05-15T13:28:50.688Z,45.60
2023-05-15T13:31:18.664Z,47.00
2023-05-15T13:33:47.977Z,48.30
2023-05-15T13:36:15.834Z,52.30
2023-05-15T13:38:43.770Z,46.40
2023-05-15T13:41:11.773Z,50.60
2023-05-15T13:43:39.624Z,47.20
2023-05-15T13:46:07.515Z,44.20
2023-05-15T13:48:35.435Z,46.10
2023-05-15T13:51:05.199Z,49.90
2023-05-15T13:53:33.131Z,47.10
2023-05-15T13:56:01.095Z,46.50
2023-05-15T13:58:29.139Z,46.60
2023-05-15T14:00:57.078Z,45.70
2023-05-15T14:03:25.138Z,44.30
2023-05-15T14:05:53.767Z,48.30
2023-05-15T14:08:23.021Z,46.00
2023-05-15T14:10:50.877Z,42.00
2023-05-15T14:13:19.362Z,44.40
2023-05-15T14:15:47.224Z,43.40
2023-05-15T14:18:15.227Z,48.10
2023-05-15T14:20:43.169Z,43.70
2023-05-15T14:23:11.152Z,46.10
2023-05-15T14:25:41.668Z,44.30
2023-05-15T14:28:09.585Z,42.50
2023-05-15T14:30:37.553Z,40.50
2023-05-15T14:33:05.557Z,42.50
2023-05-15T14:35:33.483Z,42.80
2023-05-15T14:38:01.384Z,43.40
2023-05-15T14:40:29.305Z,45.30
2023-05-15T14:42:58.558Z,42.30
2023-05-15T14:45:26.969Z,49.10
2023-05-15T14:47:55.268Z,44.10
2023-05-15T14:50:23.441Z,45.40
2023-05-15T14:52:51.545Z,45.90
2023-05-15T14:55:21.956Z,47.10
2023-05-15T14:57:50.598Z,48.40
2023-05-15T15:00:20.205Z,43.90
2023-05-15T15:02:48.209Z,46.80
2023-05-15T15:05:16.735Z,42.80
2023-05-15T15:08:02.127Z,48.10
2023-05-15T15:10:30.434Z,44.60
2023-05-15T15:12:59.034Z,43.40
2023-05-15T15:15:28.891Z,45.90
2023-05-15T15:17:57.772Z,43.80
2023-05-15T15:20:26.924Z,40.00
2023-05-15T15:22:55.875Z,41.40
2023-05-15T15:25:24.238Z,44.60
2023-05-15T15:27:52.144Z,45.20
2023-05-15T15:30:20.316Z,44.00
2023-05-15T15:32:49.651Z,44.90
2023-05-15T15:35:17.594Z,45.50
2023-05-15T15:37:45.727Z,50.00
2023-05-15T15:40:13.783Z,47.40
2023-05-15T15:42:41.818Z,48.30
2023-05-15T15:45:10.095Z,51.70
2023-05-15T15:47:38.041Z,51.10
2023-05-15T15:50:08.162Z,51.00
2023-05-15T15:52:36.170Z,52.60
2023-05-15T15:55:04.512Z,53.20
2023-05-15T15:57:33.921Z,52.40
2023-05-15T16:00:01.916Z,52.30
2023-05-15T16:02:29.982Z,54.20
2023-05-15T16:04:57.912Z,53.20
2023-05-15T16:07:27.781Z,52.00
2023-05-15T16:10:04.112Z,52.80
2023-05-15T16:12:40.126Z,54.30
2023-05-15T16:15:21.674Z,55.80
2023-05-15T16:17:53.041Z,58.20
2023-05-15T16:20:21.834Z,59.30
2023-05-15T16:22:51.158Z,60.70
2023-05-15T16:25:19.058Z,59.10
2023-05-15T16:27:46.988Z,59.80
2023-05-15T16:30:15.509Z,58.60
2023-05-15T16:32:43.518Z,56.80
2023-05-15T16:35:11.566Z,56.80
2023-05-15T16:37:39.477Z,57.70
2023-05-15T16:40:10.025Z,58.70
2023-05-15T16:42:38.646Z,60.90
2023-05-15T16:45:08.102Z,58.80
2023-05-15T16:47:37.609Z,60.70
2023-05-15T16:50:06.574Z,59.30
2023-05-15T16:52:34.485Z,62.00
2023-05-15T16:55:03.081Z,59.50
2023-05-15T16:57:32.699Z,61.10
2023-05-15T17:00:03.466Z,60.90
2023-05-15T17:02:31.405Z,61.90
2023-05-15T17:04:59.379Z,62.10
2023-05-15T17:07:27.324Z,59.10
2023-05-15T17:09:55.777Z,58.90
2023-05-15T17:12:24.113Z,60.30
2023-05-15T17:14:54.674Z,59.70
2023-05-15T17:17:23.248Z,61.80
2023-05-15T17:19:51.270Z,63.30
2023-05-15T17:22:19.297Z,63.00
2023-05-15T17:24:51.544Z,62.30
2023-05-15T17:27:20.591Z,64.50
2023-05-15T17:29:48.720Z,64.50
2023-05-15T17:32:18.803Z,64.40
2023-05-15T17:34:47.399Z,64.80
2023-05-15T17:37:15.603Z,65.30
2023-05-15T17:39:43.501Z,66.00
2023-05-15T17:42:11.426Z,67.20
2023-05-15T17:44:39.497Z,66.20
2023-05-15T17:47:08.461Z,66.40
2023-05-15T17:49:38.317Z,67.20
2023-05-15T17:52:06.629Z,67.20
2023-05-15T17:54:34.668Z,68.30
2023-05-15T17:57:02.639Z,67.90
2023-05-15T17:59:30.932Z,67.10
2023-05-15T18:01:59.002Z,68.00
2023-05-15T18:04:27.089Z,68.00
2023-05-15T18:06:56.360Z,69.10
2023-05-15T18:09:24.836Z,69.90
2023-05-15T18:11:52.911Z,69.30
2023-05-15T18:14:20.848Z,67.60
2023-05-15T18:16:48.788Z,68.50
2023-05-15T18:19:16.916Z,68.30
2023-05-15T18:21:44.907Z,67.80
2023-05-15T18:24:14.184Z,69.50
2023-05-15T18:26:42.081Z,68.60
2023-05-15T18:29:09.983Z,68.60
2023-05-15T18:31:37.964Z,69.60
2023-05-15T18:34:05.912Z,69.30
2023-05-15T18:36:34.077Z,70.40
2023-05-15T18:39:02.433Z,70.20
2023-05-15T18:41:31.705Z,70.90
2023-05-15T18:43:59.583Z,69.90
2023-05-15T18:46:28.274Z,70.50
2023-05-15T18:48:56.435Z,71.10
2023-05-15T18:51:24.592Z,70.20
2023-05-15T18:53:52.603Z,70.30
2023-05-15T18:56:21.521Z,71.50
2023-05-15T18:58:51.233Z,72.90
2023-05-15T19:01:19.160Z,71.00
2023-05-15T19:03:47.190Z,72.20
2023-05-15T19:06:19.674Z,73.50
2023-05-15T19:08:48.195Z,72.20
2023-05-15T19:11:16.166Z,71.90
2023-05-15T19:13:44.111Z,72.70
2023-05-15T19:16:13.519Z,72.90
2023-05-15T19:18:41.714Z,73.40
2023-05-15T19:21:09.956Z,74.00
2023-05-15T19:23:38.277Z,73.30
2023-05-15T19:26:06.250Z,74.30
2023-05-15T19:28:34.451Z,74.70
2023-05-15T19:31:02.329Z,74.10
2023-05-15T19:33:31.692Z,75.10
2023-05-15T19:35:59.612Z,75.00
2023-05-15T19:38:27.568Z,75.00
2023-05-15T19:40:55.443Z,74.90
2023-05-15T19:43:23.337Z,75.60
2023-05-15T19:45:51.665Z,74.70
2023-05-15T19:48:19.573Z,76.10
2023-05-15T19:50:48.907Z,75.80
2023-05-15T19:53:16.815Z,76.30
2023-05-15T19:55:44.878Z,75.40
2023-05-15T19:58:12.797Z,75.80
2023-05-15T20:00:41.360Z,75.80
2023-05-15T20:03:09.334Z,76.40
2023-05-15T20:05:40.949Z,76.70
2023-05-15T20:08:10.320Z,76.50
2023-05-15T20:10:38.266Z,76.80
2023-05-15T20:13:06.189Z,76.40
2023-05-15T20:15:35.102Z,76.80
2023-05-15T20:18:03.083Z,77.20
2023-05-15T20:20:31.199Z,77.20
2023-05-15T20:22:59.430Z,74.80
2023-05-15T20:25:29.605Z,75.10
2023-05-15T20:27:58.821Z,75.50
2023-05-15T20:30:28.758Z,74.80
2023-05-15T20:32:57.209Z,73.90
2023-05-15T20:35:25.659Z,74.00
2023-05-15T20:37:53.783Z,74.20
2023-05-15T20:40:22.848Z,73.70
2023-05-15T20:42:52.431Z,75.30
2023-05-15T20:45:20.725Z,74.80
2023-05-15T20:47:49.892Z,74.30
2023-05-15T20:50:18.568Z,75.70
2023-05-15T20:52:47.152Z,75.20
2023-05-15T20:55:17.063Z,76.40
2023-05-15T20:57:45.993Z,75.80
2023-05-15T21:00:17.263Z,76.50
2023-05-15T21:02:46.997Z,76.80
2023-05-15T21:05:15.318Z,76.10
2023-05-15T21:07:43.408Z,77.10
2023-05-15T21:10:11.772Z,76.60
2023-05-15T21:12:39.829Z,76.70
2023-05-15T21:15:09.015Z,77.10
2023-05-15T21:17:38.354Z,76.60
2023-05-15T21:20:07.370Z,76.90
2023-05-15T21:22:35.331Z,77.10
2023-05-15T21:25:03.395Z,76.70
2023-05-15T21:27:31.674Z,76.50
2023-05-15T21:29:59.668Z,76.30
2023-05-15T21:32:27.736Z,76.30
2023-05-15T21:34:57.063Z,76.60
2023-05-15T21:37:25.073Z,76.80
2023-05-15T21:39:53.039Z,76.50
2023-05-15T21:42:20.970Z,77.10
2023-05-15T21:44:48.843Z,77.10
2023-05-15T21:47:16.764Z,76.80
2023-05-15T21:49:44.717Z,77.00
2023-05-15T21:52:14.001Z,77.10
2023-05-15T21:54:43.690Z,76.80
2023-05-15T21:57:11.926Z,76.90
2023-05-15T21:59:39.878Z,76.80
2023-05-15T22:02:08.182Z,77.50
2023-05-15T22:04:36.128Z,77.00
2023-05-15T22:07:04.142Z,77.40
2023-05-15T22:09:33.750Z,77.20
2023-05-15T22:12:01.689Z,78.10
2023-05-15T22:14:29.636Z,78.50
2023-05-15T22:16:57.550Z,78.40
2023-05-15T22:19:32.963Z,78.80
2023-05-15T22:22:01.864Z,78.50
2023-05-15T22:24:29.820Z,79.00
2023-05-15T22:26:59.618Z,79.00
2023-05-15T22:29:27.651Z,79.50
2023-05-15T22:31:55.539Z,78.90
2023-05-15T22:34:25.228Z,78.90
2023-05-15T22:39:22.115Z,79.30
2023-05-15T22:41:50.553Z,79.10
2023-05-15T22:44:19.816Z,79.50
2023-05-15T22:46:48.049Z,79.30
2023-05-15T22:49:25.165Z,79.10
2023-05-15T22:51:53.455Z,79.20
2023-05-15T22:54:21.935Z,78.90
2023-05-15T22:56:52.349Z,79.10
2023-05-15T22:59:22.092Z,79.70
2023-05-15T23:01:51.347Z,79.80
2023-05-15T23:04:53.511Z,79.70
2023-05-15T23:07:21.596Z,79.70
2023-05-15T23:09:49.478Z,80.00
2023-05-15T23:12:17.391Z,79.60
2023-05-15T23:14:46.750Z,80.60
2023-05-15T23:17:14.653Z,81.30
2023-05-15T23:23:51.640Z,82.60
2023-05-15T23:26:19.537Z,83.40
2023-05-15T23:28:47.613Z,84.30
2023-05-15T23:31:17.008Z,83.90
2023-05-15T23:33:45.073Z,84.30
2023-05-15T23:36:12.976Z,83.90
2023-05-15T23:38:41.153Z,83.90
2023-05-15T23:41:09.079Z,83.10
2023-05-15T23:43:37.158Z,83.40
2023-05-15T23:46:05.640Z,84.10
2023-05-15T23:48:34.994Z,83.50
2023-05-15T23:51:03.319Z,83.10
2023-05-15T23:53:31.236Z,84.00
2023-05-15T23:55:59.130Z,84.10
2023-05-15T23:58:27.069Z,84.50
